Sylvania, GA (30467)

1:23 PM EDT on August 03, 2015 (GMT -0400)
Plantation | | Change Station
CLOSE
Current Station
Airport
Location: Sylvania,
Elevation: 187 ft
Nearby Weather Stations

Elev 187 ft 32.65 °N, 81.60 °W | Updated 8 minutes ago

Overcast
Overcast
80 °F
Feels Like 86 °F
N
6
Wind Variable Wind from SE

Today
High -- | Low -- °F
--% Chance of Precip.
Yesterday
High -- | Low -- °F
Precip. -- in
6:41 AM 8:23 PM
Waning Gibbous, 85% visible
Pressure 29.92 in
Visibility 7.0 miles
Clouds Scattered Clouds 1400 ft
Mostly Cloudy 6000 ft
Overcast 7000 ft
Heat Index 86 °F
Dew Point 78 °F
Humidity 94%
Rainfall 0.00 in
Snow Depth Not available.
UV 4 out of 12
Pollen 5.10 out of 12
Air Quality Not available.
Flu Activity Not available.
METAR KJYL 031715Z AUTO 13005KT 7SM VCTS SCT014 BKN060 OVC070 27/26 A2992 RMK AO2 LTG DSNT E T02670257

More Conditions Fewer Conditions

Pressure 29.92 in
Visibility 7.0 miles
Clouds Scattered Clouds 1400 ft
Mostly Cloudy 6000 ft
Overcast 7000 ft
Heat Index 86 °F
Dew Point 78 °F
Humidity 94%
Rainfall 0.00 in
Snow Depth Not available.
UV 4 out of 12
Pollen 5.10 out of 12
Air Quality Not available.
Flu Activity Not available.
METAR KJYL 031715Z AUTO 13005KT 7SM VCTS SCT014 BKN060 OVC070 27/26 A2992 RMK AO2 LTG DSNT E T02670257

More Conditions Fewer Conditions

10-Day Weather Forecast

×

Almanac

Astronomy

Aug. 03, 2015 Rise Set
Actual Time
Civil Twilight
Nautical Twilight
Astronomical Twilight
Moon
Length of Visible Light
Length of Day
Tomorrow will be .
, % of the Moon is Illuminated

Today's Extremes

State Highs State Lows

Community

WunderPhotos

Upload Photos

1,843,684 photos uploaded!

WunderBlogs® & News

Nearby

Air Quality

  Air Quality AQ Index Pollutant
Not available.

Snow Depth

Station Depth Elevation

Earthquake Activity

City Distance Mag. Time & Date
Minimum magnitude displayed is 2.5.

Coastal Water Temperatures

Place Temperature

Stations

Nearby Weather Stations

Station Location Temp. Windchill Dew Point Humidity Wind Precip. Elev Updated Type